sensor_id;sensor_type;location;lat;lon;timestamp;P1;durP1;ratioP1;P2;durP2;ratioP2
52210;SDS011;38179;52.756;6.906;2023-05-13T00:01:49;18.70;;;17.00;;
52210;SDS011;38179;52.756;6.906;2023-05-13T00:04:15;19.02;;;17.33;;
52210;SDS011;38179;52.756;6.906;2023-05-13T00:06:40;18.25;;;16.60;;
52210;SDS011;38179;52.756;6.906;2023-05-13T00:09:06;18.98;;;17.27;;
52210;SDS011;38179;52.756;6.906;2023-05-13T00:11:33;18.52;;;16.75;;
52210;SDS011;38179;52.756;6.906;2023-05-13T00:13:59;18.35;;;16.85;;
52210;SDS011;38179;52.756;6.906;2023-05-13T00:16:24;19.08;;;17.25;;
52210;SDS011;38179;52.756;6.906;2023-05-13T00:18:53;19.05;;;17.13;;
52210;SDS011;38179;52.756;6.906;2023-05-13T00:21:19;19.70;;;16.83;;
52210;SDS011;38179;52.756;6.906;2023-05-13T00:23:45;18.95;;;17.17;;
52210;SDS011;38179;52.756;6.906;2023-05-13T00:26:11;18.80;;;17.00;;
52210;SDS011;38179;52.756;6.906;2023-05-13T00:28:37;18.50;;;16.90;;
52210;SDS011;38179;52.756;6.906;2023-05-13T00:31:03;19.23;;;17.52;;
52210;SDS011;38179;52.756;6.906;2023-05-13T00:33:29;18.17;;;16.63;;
52210;SDS011;38179;52.756;6.906;2023-05-13T00:35:56;19.08;;;17.27;;
52210;SDS011;38179;52.756;6.906;2023-05-13T00:38:22;19.15;;;17.45;;
52210;SDS011;38179;52.756;6.906;2023-05-13T00:40:50;21.00;;;18.80;;
52210;SDS011;38179;52.756;6.906;2023-05-13T00:43:16;18.90;;;17.20;;
52210;SDS011;38179;52.756;6.906;2023-05-13T00:45:42;19.05;;;17.40;;
52210;SDS011;38179;52.756;6.906;2023-05-13T00:48:08;19.50;;;17.67;;
52210;SDS011;38179;52.756;6.906;2023-05-13T00:50:34;19.33;;;17.73;;
52210;SDS011;38179;52.756;6.906;2023-05-13T00:53:01;21.75;;;19.55;;
52210;SDS011;38179;52.756;6.906;2023-05-13T00:55:27;19.75;;;17.95;;
52210;SDS011;38179;52.756;6.906;2023-05-13T00:57:53;20.80;;;18.75;;
52210;SDS011;38179;52.756;6.906;2023-05-13T01:00:19;19.45;;;17.63;;
52210;SDS011;38179;52.756;6.906;2023-05-13T01:05:45;19.55;;;17.83;;
52210;SDS011;38179;52.756;6.906;2023-05-13T01:11:30;20.30;;;18.48;;
52210;SDS011;38179;52.756;6.906;2023-05-13T01:14:02;20.77;;;18.77;;
52210;SDS011;38179;52.756;6.906;2023-05-13T01:16:58;20.77;;;18.75;;
52210;SDS011;38179;52.756;6.906;2023-05-13T01:22:08;19.70;;;17.80;;
52210;SDS011;38179;52.756;6.906;2023-05-13T01:24:34;19.60;;;17.83;;
52210;SDS011;38179;52.756;6.906;2023-05-13T01:27:00;20.45;;;18.33;;
52210;SDS011;38179;52.756;6.906;2023-05-13T01:29:26;19.20;;;17.50;;
52210;SDS011;38179;52.756;6.906;2023-05-13T01:31:52;20.88;;;18.98;;
52210;SDS011;38179;52.756;6.906;2023-05-13T01:34:20;19.83;;;17.85;;
52210;SDS011;38179;52.756;6.906;2023-05-13T01:36:47;19.67;;;17.92;;
52210;SDS011;38179;52.756;6.906;2023-05-13T01:39:14;20.02;;;18.20;;
52210;SDS011;38179;52.756;6.906;2023-05-13T01:41:42;21.05;;;18.95;;
52210;SDS011;38179;52.756;6.906;2023-05-13T01:44:09;20.08;;;18.05;;
52210;SDS011;38179;52.756;6.906;2023-05-13T01:46:37;20.65;;;18.60;;
52210;SDS011;38179;52.756;6.906;2023-05-13T01:49:03;20.03;;;18.33;;
52210;SDS011;38179;52.756;6.906;2023-05-13T01:51:30;20.75;;;18.88;;
52210;SDS011;38179;52.756;6.906;2023-05-13T01:53:56;20.38;;;18.58;;
52210;SDS011;38179;52.756;6.906;2023-05-13T01:56:22;25.30;;;20.10;;
52210;SDS011;38179;52.756;6.906;2023-05-13T01:58:48;21.58;;;19.67;;
52210;SDS011;38179;52.756;6.906;2023-05-13T02:01:14;20.85;;;18.90;;
52210;SDS011;38179;52.756;6.906;2023-05-13T02:03:40;20.60;;;18.60;;
52210;SDS011;38179;52.756;6.906;2023-05-13T02:06:06;20.65;;;18.55;;
52210;SDS011;38179;52.756;6.906;2023-05-13T02:08:32;24.02;;;18.83;;
52210;SDS011;38179;52.756;6.906;2023-05-13T02:10:58;19.40;;;17.50;;
52210;SDS011;38179;52.756;6.906;2023-05-13T02:13:24;20.23;;;18.35;;
52210;SDS011;38179;52.756;6.906;2023-05-13T02:15:51;20.38;;;18.58;;
52210;SDS011;38179;52.756;6.906;2023-05-13T02:18:18;20.67;;;18.88;;
52210;SDS011;38179;52.756;6.906;2023-05-13T02:20:44;22.15;;;17.95;;
52210;SDS011;38179;52.756;6.906;2023-05-13T02:23:10;19.95;;;18.10;;
52210;SDS011;38179;52.756;6.906;2023-05-13T02:25:36;20.00;;;18.10;;
52210;SDS011;38179;52.756;6.906;2023-05-13T02:28:02;20.30;;;18.35;;
52210;SDS011;38179;52.756;6.906;2023-05-13T02:30:28;20.40;;;18.40;;
52210;SDS011;38179;52.756;6.906;2023-05-13T02:32:55;19.15;;;17.33;;
52210;SDS011;38179;52.756;6.906;2023-05-13T02:35:22;21.10;;;19.02;;
52210;SDS011;38179;52.756;6.906;2023-05-13T02:37:49;19.90;;;18.20;;
52210;SDS011;38179;52.756;6.906;2023-05-13T02:40:15;20.67;;;18.65;;
52210;SDS011;38179;52.756;6.906;2023-05-13T02:42:41;20.45;;;18.33;;
52210;SDS011;38179;52.756;6.906;2023-05-13T02:45:08;20.25;;;18.25;;
52210;SDS011;38179;52.756;6.906;2023-05-13T02:47:35;19.58;;;17.80;;
52210;SDS011;38179;52.756;6.906;2023-05-13T02:50:01;20.50;;;18.52;;
52210;SDS011;38179;52.756;6.906;2023-05-13T02:52:29;20.90;;;18.95;;
52210;SDS011;38179;52.756;6.906;2023-05-13T02:54:55;20.20;;;18.23;;
52210;SDS011;38179;52.756;6.906;2023-05-13T02:57:21;20.98;;;18.85;;
52210;SDS011;38179;52.756;6.906;2023-05-13T02:59:47;20.08;;;18.35;;
52210;SDS011;38179;52.756;6.906;2023-05-13T03:02:13;21.00;;;18.92;;
52210;SDS011;38179;52.756;6.906;2023-05-13T03:04:39;19.50;;;17.70;;
52210;SDS011;38179;52.756;6.906;2023-05-13T03:07:05;21.05;;;18.83;;
52210;SDS011;38179;52.756;6.906;2023-05-13T03:09:31;20.75;;;18.73;;
52210;SDS011;38179;52.756;6.906;2023-05-13T03:11:59;20.10;;;18.20;;
52210;SDS011;38179;52.756;6.906;2023-05-13T03:14:25;20.65;;;18.50;;
52210;SDS011;38179;52.756;6.906;2023-05-13T03:16:52;20.05;;;18.15;;
52210;SDS011;38179;52.756;6.906;2023-05-13T03:19:17;20.02;;;18.17;;
52210;SDS011;38179;52.756;6.906;2023-05-13T03:21:43;20.48;;;18.55;;
52210;SDS011;38179;52.756;6.906;2023-05-13T03:24:09;20.65;;;18.70;;
52210;SDS011;38179;52.756;6.906;2023-05-13T03:26:35;19.98;;;18.05;;
52210;SDS011;38179;52.756;6.906;2023-05-13T03:29:01;20.50;;;18.58;;
52210;SDS011;38179;52.756;6.906;2023-05-13T03:31:27;20.80;;;18.70;;
52210;SDS011;38179;52.756;6.906;2023-05-13T03:33:53;19.95;;;18.02;;
52210;SDS011;38179;52.756;6.906;2023-05-13T03:36:18;19.67;;;17.88;;
52210;SDS011;38179;52.756;6.906;2023-05-13T03:38:44;21.35;;;19.10;;
52210;SDS011;38179;52.756;6.906;2023-05-13T03:41:10;21.40;;;19.38;;
52210;SDS011;38179;52.756;6.906;2023-05-13T03:43:36;21.83;;;19.65;;
52210;SDS011;38179;52.756;6.906;2023-05-13T03:46:02;21.10;;;19.10;;
52210;SDS011;38179;52.756;6.906;2023-05-13T03:48:28;21.13;;;19.15;;
52210;SDS011;38179;52.756;6.906;2023-05-13T03:50:53;21.70;;;19.58;;
52210;SDS011;38179;52.756;6.906;2023-05-13T03:53:19;20.70;;;18.70;;
52210;SDS011;38179;52.756;6.906;2023-05-13T03:55:45;21.13;;;19.02;;
52210;SDS011;38179;52.756;6.906;2023-05-13T03:58:12;22.90;;;20.15;;
52210;SDS011;38179;52.756;6.906;2023-05-13T04:00:40;21.63;;;19.50;;
52210;SDS011;38179;52.756;6.906;2023-05-13T04:03:07;21.58;;;19.55;;
52210;SDS011;38179;52.756;6.906;2023-05-13T04:05:34;21.85;;;19.65;;
52210;SDS011;38179;52.756;6.906;2023-05-13T04:08:00;21.73;;;19.13;;
52210;SDS011;38179;52.756;6.906;2023-05-13T04:10:26;22.20;;;20.00;;
52210;SDS011;38179;52.756;6.906;2023-05-13T04:12:52;21.42;;;19.27;;
52210;SDS011;38179;52.756;6.906;2023-05-13T04:15:17;21.95;;;19.70;;
52210;SDS011;38179;52.756;6.906;2023-05-13T04:17:43;21.58;;;19.58;;
52210;SDS011;38179;52.756;6.906;2023-05-13T04:20:09;22.98;;;20.52;;
52210;SDS011;38179;52.756;6.906;2023-05-13T04:22:35;21.55;;;19.25;;
52210;SDS011;38179;52.756;6.906;2023-05-13T04:25:01;21.60;;;19.60;;
52210;SDS011;38179;52.756;6.906;2023-05-13T04:27:27;22.55;;;20.25;;
52210;SDS011;38179;52.756;6.906;2023-05-13T04:29:53;23.30;;;20.95;;
52210;SDS011;38179;52.756;6.906;2023-05-13T04:32:19;22.80;;;20.65;;
52210;SDS011;38179;52.756;6.906;2023-05-13T04:34:48;23.40;;;21.10;;
52210;SDS011;38179;52.756;6.906;2023-05-13T04:37:14;21.58;;;19.58;;
52210;SDS011;38179;52.756;6.906;2023-05-13T04:39:41;22.75;;;20.52;;
52210;SDS011;38179;52.756;6.906;2023-05-13T04:42:10;24.27;;;20.73;;
52210;SDS011;38179;52.756;6.906;2023-05-13T04:44:36;21.13;;;19.13;;
52210;SDS011;38179;52.756;6.906;2023-05-13T04:47:02;22.27;;;20.23;;
52210;SDS011;38179;52.756;6.906;2023-05-13T04:49:28;24.75;;;21.70;;
52210;SDS011;38179;52.756;6.906;2023-05-13T04:51:54;23.13;;;20.92;;
52210;SDS011;38179;52.756;6.906;2023-05-13T04:54:20;22.35;;;20.25;;
52210;SDS011;38179;52.756;6.906;2023-05-13T04:56:46;22.77;;;20.58;;
52210;SDS011;38179;52.756;6.906;2023-05-13T04:59:12;23.45;;;21.33;;
52210;SDS011;38179;52.756;6.906;2023-05-13T05:01:37;22.52;;;20.45;;
52210;SDS011;38179;52.756;6.906;2023-05-13T05:04:04;24.02;;;21.63;;
52210;SDS011;38179;52.756;6.906;2023-05-13T05:06:30;24.13;;;21.92;;
52210;SDS011;38179;52.756;6.906;2023-05-13T05:08:56;24.25;;;21.92;;
52210;SDS011;38179;52.756;6.906;2023-05-13T05:11:23;24.08;;;21.58;;
52210;SDS011;38179;52.756;6.906;2023-05-13T05:13:49;23.77;;;21.55;;
52210;SDS011;38179;52.756;6.906;2023-05-13T05:16:15;26.25;;;23.75;;
52210;SDS011;38179;52.756;6.906;2023-05-13T05:18:41;25.67;;;23.17;;
52210;SDS011;38179;52.756;6.906;2023-05-13T05:21:10;25.05;;;22.42;;
52210;SDS011;38179;52.756;6.906;2023-05-13T05:26:02;24.02;;;21.70;;
52210;SDS011;38179;52.756;6.906;2023-05-13T05:28:28;26.80;;;23.60;;
52210;SDS011;38179;52.756;6.906;2023-05-13T05:30:55;26.23;;;23.67;;
52210;SDS011;38179;52.756;6.906;2023-05-13T05:33:21;27.02;;;24.52;;
52210;SDS011;38179;52.756;6.906;2023-05-13T05:35:48;26.40;;;23.90;;
52210;SDS011;38179;52.756;6.906;2023-05-13T05:38:14;26.95;;;24.33;;
52210;SDS011;38179;52.756;6.906;2023-05-13T05:40:43;27.15;;;24.55;;
52210;SDS011;38179;52.756;6.906;2023-05-13T05:45:38;28.35;;;25.65;;
52210;SDS011;38179;52.756;6.906;2023-05-13T05:50:31;27.15;;;24.48;;
52210;SDS011;38179;52.756;6.906;2023-05-13T05:52:58;32.90;;;26.25;;
52210;SDS011;38179;52.756;6.906;2023-05-13T05:55:24;26.30;;;23.75;;
52210;SDS011;38179;52.756;6.906;2023-05-13T05:57:55;28.23;;;25.27;;
52210;SDS011;38179;52.756;6.906;2023-05-13T06:00:21;27.48;;;24.88;;
52210;SDS011;38179;52.756;6.906;2023-05-13T06:02:48;27.40;;;24.13;;
52210;SDS011;38179;52.756;6.906;2023-05-13T06:05:14;27.63;;;24.70;;
52210;SDS011;38179;52.756;6.906;2023-05-13T06:07:40;31.38;;;24.88;;
52210;SDS011;38179;52.756;6.906;2023-05-13T06:10:06;28.05;;;23.75;;
52210;SDS011;38179;52.756;6.906;2023-05-13T06:12:33;27.73;;;25.02;;
52210;SDS011;38179;52.756;6.906;2023-05-13T06:14:59;26.17;;;23.40;;
52210;SDS011;38179;52.756;6.906;2023-05-13T06:17:25;26.42;;;23.73;;
52210;SDS011;38179;52.756;6.906;2023-05-13T06:19:51;26.52;;;24.08;;
52210;SDS011;38179;52.756;6.906;2023-05-13T06:22:17;26.30;;;23.52;;
52210;SDS011;38179;52.756;6.906;2023-05-13T06:24:43;26.23;;;23.58;;
52210;SDS011;38179;52.756;6.906;2023-05-13T06:27:10;26.65;;;24.17;;
52210;SDS011;38179;52.756;6.906;2023-05-13T06:29:36;26.10;;;23.48;;
52210;SDS011;38179;52.756;6.906;2023-05-13T06:32:02;25.75;;;23.15;;
52210;SDS011;38179;52.756;6.906;2023-05-13T06:34:28;24.80;;;22.50;;
52210;SDS011;38179;52.756;6.906;2023-05-13T06:36:55;24.67;;;22.33;;
52210;SDS011;38179;52.756;6.906;2023-05-13T06:39:21;24.77;;;22.33;;
52210;SDS011;38179;52.756;6.906;2023-05-13T06:41:46;26.70;;;23.98;;
52210;SDS011;38179;52.756;6.906;2023-05-13T06:44:12;25.83;;;23.10;;
52210;SDS011;38179;52.756;6.906;2023-05-13T06:46:38;25.27;;;22.95;;
52210;SDS011;38179;52.756;6.906;2023-05-13T06:49:04;24.73;;;22.35;;
52210;SDS011;38179;52.756;6.906;2023-05-13T06:51:30;25.73;;;22.70;;
52210;SDS011;38179;52.756;6.906;2023-05-13T06:53:59;24.10;;;21.80;;
52210;SDS011;38179;52.756;6.906;2023-05-13T06:56:25;26.80;;;23.30;;
52210;SDS011;38179;52.756;6.906;2023-05-13T06:58:51;23.90;;;21.60;;
52210;SDS011;38179;52.756;6.906;2023-05-13T07:01:17;25.33;;;22.77;;
52210;SDS011;38179;52.756;6.906;2023-05-13T07:03:43;24.75;;;22.27;;
52210;SDS011;38179;52.756;6.906;2023-05-13T07:06:09;26.00;;;23.30;;
52210;SDS011;38179;52.756;6.906;2023-05-13T07:08:36;23.60;;;20.92;;
52210;SDS011;38179;52.756;6.906;2023-05-13T07:11:02;24.73;;;22.23;;
52210;SDS011;38179;52.756;6.906;2023-05-13T07:13:29;24.17;;;21.98;;
52210;SDS011;38179;52.756;6.906;2023-05-13T07:15:57;25.35;;;22.70;;
52210;SDS011;38179;52.756;6.906;2023-05-13T07:18:23;24.23;;;21.75;;
52210;SDS011;38179;52.756;6.906;2023-05-13T07:20:49;24.02;;;21.83;;
52210;SDS011;38179;52.756;6.906;2023-05-13T07:23:15;24.98;;;22.58;;
52210;SDS011;38179;52.756;6.906;2023-05-13T07:25:41;23.30;;;21.08;;
52210;SDS011;38179;52.756;6.906;2023-05-13T07:28:07;23.27;;;21.17;;
52210;SDS011;38179;52.756;6.906;2023-05-13T07:30:33;23.67;;;21.50;;
52210;SDS011;38179;52.756;6.906;2023-05-13T07:32:59;24.13;;;21.83;;
52210;SDS011;38179;52.756;6.906;2023-05-13T07:35:25;24.83;;;22.38;;
52210;SDS011;38179;52.756;6.906;2023-05-13T07:37:51;24.70;;;22.23;;
52210;SDS011;38179;52.756;6.906;2023-05-13T07:40:17;24.02;;;21.83;;
52210;SDS011;38179;52.756;6.906;2023-05-13T07:42:44;23.40;;;21.20;;
52210;SDS011;38179;52.756;6.906;2023-05-13T07:45:11;24.48;;;22.10;;
52210;SDS011;38179;52.756;6.906;2023-05-13T07:47:36;24.00;;;21.70;;
52210;SDS011;38179;52.756;6.906;2023-05-13T07:50:02;25.08;;;22.67;;
52210;SDS011;38179;52.756;6.906;2023-05-13T07:52:29;23.92;;;21.73;;
52210;SDS011;38179;52.756;6.906;2023-05-13T07:54:55;25.17;;;22.48;;
52210;SDS011;38179;52.756;6.906;2023-05-13T07:57:21;24.17;;;21.85;;
52210;SDS011;38179;52.756;6.906;2023-05-13T07:59:47;23.88;;;21.65;;
52210;SDS011;38179;52.756;6.906;2023-05-13T08:02:13;23.65;;;21.45;;
52210;SDS011;38179;52.756;6.906;2023-05-13T08:04:39;23.30;;;21.02;;
52210;SDS011;38179;52.756;6.906;2023-05-13T08:07:05;24.17;;;21.75;;
52210;SDS011;38179;52.756;6.906;2023-05-13T08:09:33;24.30;;;21.75;;
52210;SDS011;38179;52.756;6.906;2023-05-13T08:11:59;24.00;;;21.70;;
52210;SDS011;38179;52.756;6.906;2023-05-13T08:14:25;23.90;;;21.63;;
52210;SDS011;38179;52.756;6.906;2023-05-13T08:16:51;23.65;;;21.25;;
52210;SDS011;38179;52.756;6.906;2023-05-13T08:19:17;24.73;;;22.20;;
52210;SDS011;38179;52.756;6.906;2023-05-13T08:21:43;23.70;;;21.48;;
52210;SDS011;38179;52.756;6.906;2023-05-13T08:24:09;22.92;;;20.83;;
52210;SDS011;38179;52.756;6.906;2023-05-13T08:26:36;23.13;;;21.02;;
52210;SDS011;38179;52.756;6.906;2023-05-13T08:29:02;24.20;;;21.83;;
52210;SDS011;38179;52.756;6.906;2023-05-13T08:31:28;23.48;;;21.20;;
52210;SDS011;38179;52.756;6.906;2023-05-13T08:33:55;23.50;;;21.20;;
52210;SDS011;38179;52.756;6.906;2023-05-13T08:36:20;24.25;;;22.02;;
52210;SDS011;38179;52.756;6.906;2023-05-13T08:38:47;23.65;;;21.55;;
52210;SDS011;38179;52.756;6.906;2023-05-13T08:41:13;24.50;;;22.08;;
52210;SDS011;38179;52.756;6.906;2023-05-13T08:43:41;23.20;;;21.08;;
52210;SDS011;38179;52.756;6.906;2023-05-13T08:46:08;25.15;;;22.60;;
52210;SDS011;38179;52.756;6.906;2023-05-13T08:48:39;24.20;;;21.70;;
52210;SDS011;38179;52.756;6.906;2023-05-13T08:51:07;23.63;;;21.27;;
52210;SDS011;38179;52.756;6.906;2023-05-13T08:53:33;22.52;;;20.42;;
52210;SDS011;38179;52.756;6.906;2023-05-13T08:56:00;23.60;;;21.45;;
52210;SDS011;38179;52.756;6.906;2023-05-13T08:58:27;23.25;;;21.02;;
52210;SDS011;38179;52.756;6.906;2023-05-13T09:00:53;23.40;;;21.08;;
52210;SDS011;38179;52.756;6.906;2023-05-13T09:03:20;22.67;;;20.63;;
52210;SDS011;38179;52.756;6.906;2023-05-13T09:05:46;21.20;;;19.40;;
52210;SDS011;38179;52.756;6.906;2023-05-13T09:08:12;21.27;;;19.25;;
52210;SDS011;38179;52.756;6.906;2023-05-13T09:10:39;21.73;;;19.65;;
52210;SDS011;38179;52.756;6.906;2023-05-13T09:13:05;20.48;;;18.58;;
52210;SDS011;38179;52.756;6.906;2023-05-13T09:15:31;20.98;;;19.17;;
52210;SDS011;38179;52.756;6.906;2023-05-13T09:17:58;21.70;;;19.55;;
52210;SDS011;38179;52.756;6.906;2023-05-13T09:20:31;21.48;;;19.42;;
52210;SDS011;38179;52.756;6.906;2023-05-13T09:22:59;21.23;;;19.33;;
52210;SDS011;38179;52.756;6.906;2023-05-13T09:25:31;22.98;;;20.88;;
52210;SDS011;38179;52.756;6.906;2023-05-13T09:27:58;22.30;;;20.40;;
52210;SDS011;38179;52.756;6.906;2023-05-13T09:30:31;20.83;;;19.13;;
52210;SDS011;38179;52.756;6.906;2023-05-13T09:35:40;22.55;;;20.35;;
52210;SDS011;38179;52.756;6.906;2023-05-13T09:38:12;20.02;;;18.35;;
52210;SDS011;38179;52.756;6.906;2023-05-13T09:40:39;21.73;;;19.50;;
52210;SDS011;38179;52.756;6.906;2023-05-13T09:43:05;21.25;;;19.17;;
52210;SDS011;38179;52.756;6.906;2023-05-13T09:45:32;21.02;;;18.88;;
52210;SDS011;38179;52.756;6.906;2023-05-13T09:47:59;20.50;;;18.52;;
52210;SDS011;38179;52.756;6.906;2023-05-13T09:50:25;22.58;;;19.15;;
52210;SDS011;38179;52.756;6.906;2023-05-13T09:52:51;20.75;;;18.95;;
52210;SDS011;38179;52.756;6.906;2023-05-13T09:55:17;21.92;;;19.50;;
52210;SDS011;38179;52.756;6.906;2023-05-13T09:57:44;20.50;;;18.65;;
52210;SDS011;38179;52.756;6.906;2023-05-13T10:00:10;20.45;;;17.35;;
52210;SDS011;38179;52.756;6.906;2023-05-13T10:02:37;19.80;;;17.83;;
52210;SDS011;38179;52.756;6.906;2023-05-13T10:05:03;20.75;;;18.40;;
52210;SDS011;38179;52.756;6.906;2023-05-13T10:07:32;20.58;;;18.75;;
52210;SDS011;38179;52.756;6.906;2023-05-13T10:10:00;21.05;;;18.98;;
52210;SDS011;38179;52.756;6.906;2023-05-13T10:12:29;21.73;;;19.10;;
52210;SDS011;38179;52.756;6.906;2023-05-13T10:14:56;20.35;;;18.65;;
52210;SDS011;38179;52.756;6.906;2023-05-13T10:17:23;20.42;;;18.63;;
52210;SDS011;38179;52.756;6.906;2023-05-13T10:19:50;20.88;;;18.92;;
52210;SDS011;38179;52.756;6.906;2023-05-13T10:22:38;20.65;;;18.13;;
52210;SDS011;38179;52.756;6.906;2023-05-13T10:25:04;19.52;;;17.90;;
52210;SDS011;38179;52.756;6.906;2023-05-13T10:27:32;19.05;;;17.33;;
52210;SDS011;38179;52.756;6.906;2023-05-13T10:29:59;19.90;;;17.55;;
52210;SDS011;38179;52.756;6.906;2023-05-13T10:32:26;18.70;;;17.10;;
52210;SDS011;38179;52.756;6.906;2023-05-13T10:35:27;18.65;;;16.98;;
52210;SDS011;38179;52.756;6.906;2023-05-13T10:45:47;18.15;;;16.63;;
52210;SDS011;38179;52.756;6.906;2023-05-13T10:48:15;18.42;;;16.75;;
52210;SDS011;38179;52.756;6.906;2023-05-13T10:50:54;18.92;;;17.05;;
52210;SDS011;38179;52.756;6.906;2023-05-13T10:53:42;18.15;;;16.55;;
52210;SDS011;38179;52.756;6.906;2023-05-13T10:56:10;19.33;;;17.65;;
52210;SDS011;38179;52.756;6.906;2023-05-13T10:58:36;19.65;;;17.42;;
52210;SDS011;38179;52.756;6.906;2023-05-13T11:03:43;19.17;;;17.58;;
52210;SDS011;38179;52.756;6.906;2023-05-13T11:06:19;18.98;;;17.30;;
52210;SDS011;38179;52.756;6.906;2023-05-13T11:08:47;19.95;;;17.63;;
52210;SDS011;38179;52.756;6.906;2023-05-13T11:11:22;18.98;;;17.25;;
52210;SDS011;38179;52.756;6.906;2023-05-13T11:14:05;18.05;;;16.40;;
52210;SDS011;38179;52.756;6.906;2023-05-13T11:16:54;17.92;;;16.52;;
52210;SDS011;38179;52.756;6.906;2023-05-13T11:19:34;19.05;;;17.25;;
52210;SDS011;38179;52.756;6.906;2023-05-13T11:22:11;19.35;;;17.08;;
52210;SDS011;38179;52.756;6.906;2023-05-13T11:24:44;18.70;;;16.80;;
52210;SDS011;38179;52.756;6.906;2023-05-13T11:27:12;18.20;;;16.60;;
52210;SDS011;38179;52.756;6.906;2023-05-13T11:29:48;19.10;;;17.50;;
52210;SDS011;38179;52.756;6.906;2023-05-13T11:37:54;17.52;;;16.15;;
52210;SDS011;38179;52.756;6.906;2023-05-13T11:40:21;17.98;;;16.45;;
52210;SDS011;38179;52.756;6.906;2023-05-13T11:42:47;17.92;;;16.35;;
52210;SDS011;38179;52.756;6.906;2023-05-13T11:45:14;18.15;;;16.65;;
52210;SDS011;38179;52.756;6.906;2023-05-13T11:47:42;18.48;;;16.83;;
52210;SDS011;38179;52.756;6.906;2023-05-13T11:50:26;18.48;;;16.63;;
52210;SDS011;38179;52.756;6.906;2023-05-13T11:52:57;20.75;;;17.20;;
52210;SDS011;38179;52.756;6.906;2023-05-13T11:55:25;18.40;;;16.63;;
52210;SDS011;38179;52.756;6.906;2023-05-13T11:57:55;17.77;;;16.08;;
52210;SDS011;38179;52.756;6.906;2023-05-13T12:02:57;17.70;;;16.10;;
52210;SDS011;38179;52.756;6.906;2023-05-13T12:05:24;17.65;;;16.15;;
52210;SDS011;38179;52.756;6.906;2023-05-13T12:07:50;18.27;;;16.58;;
52210;SDS011;38179;52.756;6.906;2023-05-13T12:10:20;18.65;;;16.80;;
52210;SDS011;38179;52.756;6.906;2023-05-13T12:12:46;18.70;;;16.92;;
52210;SDS011;38179;52.756;6.906;2023-05-13T12:15:13;17.90;;;16.27;;
52210;SDS011;38179;52.756;6.906;2023-05-13T12:17:41;18.10;;;16.55;;
52210;SDS011;38179;52.756;6.906;2023-05-13T12:22:59;17.50;;;16.13;;
52210;SDS011;38179;52.756;6.906;2023-05-13T12:25:31;17.75;;;16.35;;
52210;SDS011;38179;52.756;6.906;2023-05-13T12:28:19;17.55;;;16.08;;
52210;SDS011;38179;52.756;6.906;2023-05-13T12:30:52;19.42;;;17.40;;
52210;SDS011;38179;52.756;6.906;2023-05-13T12:33:26;17.95;;;16.45;;
52210;SDS011;38179;52.756;6.906;2023-05-13T12:39:00;18.65;;;16.92;;
52210;SDS011;38179;52.756;6.906;2023-05-13T12:41:32;18.55;;;16.95;;
52210;SDS011;38179;52.756;6.906;2023-05-13T12:44:09;18.40;;;16.90;;
52210;SDS011;38179;52.756;6.906;2023-05-13T12:46:47;19.02;;;17.52;;
52210;SDS011;38179;52.756;6.906;2023-05-13T12:49:17;18.83;;;16.88;;
52210;SDS011;38179;52.756;6.906;2023-05-13T12:51:43;18.02;;;16.63;;
52210;SDS011;38179;52.756;6.906;2023-05-13T12:54:09;18.80;;;17.40;;
52210;SDS011;38179;52.756;6.906;2023-05-13T12:56:36;18.48;;;16.85;;
52210;SDS011;38179;52.756;6.906;2023-05-13T12:59:04;18.38;;;16.85;;
52210;SDS011;38179;52.756;6.906;2023-05-13T13:01:30;17.95;;;16.35;;
52210;SDS011;38179;52.756;6.906;2023-05-13T13:03:56;18.42;;;16.83;;
52210;SDS011;38179;52.756;6.906;2023-05-13T13:06:22;19.05;;;17.08;;
52210;SDS011;38179;52.756;6.906;2023-05-13T13:08:48;18.55;;;16.75;;
52210;SDS011;38179;52.756;6.906;2023-05-13T13:11:13;18.70;;;16.98;;
52210;SDS011;38179;52.756;6.906;2023-05-13T13:16:08;19.13;;;17.50;;
52210;SDS011;38179;52.756;6.906;2023-05-13T13:18:34;18.50;;;16.73;;
52210;SDS011;38179;52.756;6.906;2023-05-13T13:21:00;18.92;;;16.95;;
52210;SDS011;38179;52.756;6.906;2023-05-13T13:23:26;18.95;;;17.30;;
52210;SDS011;38179;52.756;6.906;2023-05-13T13:25:52;18.95;;;17.38;;
52210;SDS011;38179;52.756;6.906;2023-05-13T13:28:18;18.95;;;17.30;;
52210;SDS011;38179;52.756;6.906;2023-05-13T13:30:44;19.35;;;17.58;;
52210;SDS011;38179;52.756;6.906;2023-05-13T13:33:11;19.02;;;17.35;;
52210;SDS011;38179;52.756;6.906;2023-05-13T13:35:39;19.03;;;17.40;;
52210;SDS011;38179;52.756;6.906;2023-05-13T13:38:05;19.30;;;17.65;;
52210;SDS011;38179;52.756;6.906;2023-05-13T13:40:32;18.67;;;17.05;;
52210;SDS011;38179;52.756;6.906;2023-05-13T13:42:59;20.00;;;18.20;;
52210;SDS011;38179;52.756;6.906;2023-05-13T13:45:25;19.08;;;17.48;;
52210;SDS011;38179;52.756;6.906;2023-05-13T13:47:50;18.95;;;17.02;;
52210;SDS011;38179;52.756;6.906;2023-05-13T13:50:16;18.98;;;17.13;;
52210;SDS011;38179;52.756;6.906;2023-05-13T13:52:42;18.55;;;17.05;;
52210;SDS011;38179;52.756;6.906;2023-05-13T13:55:08;18.88;;;17.30;;
52210;SDS011;38179;52.756;6.906;2023-05-13T13:57:36;18.37;;;16.97;;
52210;SDS011;38179;52.756;6.906;2023-05-13T14:00:03;18.17;;;16.77;;
52210;SDS011;38179;52.756;6.906;2023-05-13T14:02:29;19.38;;;17.77;;
52210;SDS011;38179;52.756;6.906;2023-05-13T14:04:55;19.70;;;17.88;;
52210;SDS011;38179;52.756;6.906;2023-05-13T14:07:21;19.15;;;17.65;;
52210;SDS011;38179;52.756;6.906;2023-05-13T14:09:47;19.05;;;17.55;;
52210;SDS011;38179;52.756;6.906;2023-05-13T14:12:14;19.27;;;17.45;;
52210;SDS011;38179;52.756;6.906;2023-05-13T14:14:40;18.67;;;17.17;;
52210;SDS011;38179;52.756;6.906;2023-05-13T14:17:05;19.00;;;17.40;;
52210;SDS011;38179;52.756;6.906;2023-05-13T14:19:31;19.58;;;17.77;;
52210;SDS011;38179;52.756;6.906;2023-05-13T14:21:57;19.40;;;17.70;;
52210;SDS011;38179;52.756;6.906;2023-05-13T14:24:23;19.50;;;17.58;;
52210;SDS011;38179;52.756;6.906;2023-05-13T14:26:49;19.88;;;17.67;;
52210;SDS011;38179;52.756;6.906;2023-05-13T14:29:15;19.05;;;17.35;;
52210;SDS011;38179;52.756;6.906;2023-05-13T14:31:41;18.92;;;17.42;;
52210;SDS011;38179;52.756;6.906;2023-05-13T14:34:07;19.75;;;17.88;;
52210;SDS011;38179;52.756;6.906;2023-05-13T14:36:32;18.73;;;17.13;;
52210;SDS011;38179;52.756;6.906;2023-05-13T14:38:58;19.15;;;17.77;;
52210;SDS011;38179;52.756;6.906;2023-05-13T14:41:24;19.63;;;18.10;;
52210;SDS011;38179;52.756;6.906;2023-05-13T14:43:51;20.20;;;18.48;;
52210;SDS011;38179;52.756;6.906;2023-05-13T14:46:17;20.05;;;18.27;;
52210;SDS011;38179;52.756;6.906;2023-05-13T14:48:42;19.98;;;18.38;;
52210;SDS011;38179;52.756;6.906;2023-05-13T14:51:08;19.75;;;17.92;;
52210;SDS011;38179;52.756;6.906;2023-05-13T14:53:37;19.23;;;17.55;;
52210;SDS011;38179;52.756;6.906;2023-05-13T14:56:03;19.90;;;18.27;;
52210;SDS011;38179;52.756;6.906;2023-05-13T14:58:30;20.02;;;18.55;;
52210;SDS011;38179;52.756;6.906;2023-05-13T15:00:56;20.23;;;18.30;;
52210;SDS011;38179;52.756;6.906;2023-05-13T15:03:22;20.20;;;18.48;;
52210;SDS011;38179;52.756;6.906;2023-05-13T15:05:48;21.20;;;19.15;;
52210;SDS011;38179;52.756;6.906;2023-05-13T15:08:15;20.13;;;18.38;;